Catawba Heights, North Carolina
Current Conditions -  °F | °C
As of 7:52 AM on Friday 24 Oct 2014 (Local Time) from KCLT Reporting Station
Broken Clouds Broken Clouds  
Wind Chill: 41°   Ceiling: 14000
Heat Index: 41°   Visibility: 10mi
Dew Point: 38°   Wind: 0mph
Humidity: 89%   Direction: NA
Pressure: 30.06"   Gusts: NA
Location:  35.2342°N, 81.041°W
Report Text: KCLT 241152Z 00000KT 10SM BKN140 BKN250 05/03 A3006 RMK AO2 SLP180 T00500033 10089 20039 53006 $
Loading
Personal Weather Stations






























Interactive Weather Map
Tropical Storm Tracking
New forecast layout! Learn more

10-Day Weather Forecast

Advertisements
Track Severe Weather on mobile